createdAt,value
2022-08-21T00:01:36.164Z,22.20
2022-08-21T00:04:10.458Z,22.20
2022-08-21T00:06:38.336Z,22.20
2022-08-21T00:09:07.660Z,22.20
2022-08-21T00:11:38.711Z,22.20
2022-08-21T00:14:07.272Z,22.20
2022-08-21T00:16:34.311Z,22.20
2022-08-21T00:19:01.447Z,22.20
2022-08-21T00:21:28.191Z,22.10
2022-08-21T00:23:55.088Z,22.10
2022-08-21T00:26:21.829Z,22.10
2022-08-21T00:28:49.902Z,22.00
2022-08-21T00:31:17.341Z,22.00
2022-08-21T00:33:44.258Z,22.00
2022-08-21T00:36:11.744Z,22.00
2022-08-21T00:38:38.841Z,21.90
2022-08-21T00:41:21.161Z,21.90
2022-08-21T00:43:56.661Z,21.80
2022-08-21T00:46:28.244Z,21.80
2022-08-21T00:48:56.260Z,21.80
2022-08-21T00:51:42.536Z,21.70
2022-08-21T00:54:18.430Z,21.80
2022-08-21T00:56:52.644Z,21.70
2022-08-21T00:59:21.872Z,21.70
2022-08-21T01:01:49.443Z,21.70
2022-08-21T01:04:17.290Z,21.70
2022-08-21T01:06:44.599Z,21.70
2022-08-21T01:09:12.138Z,21.60
2022-08-21T01:11:39.046Z,21.60
2022-08-21T01:14:05.895Z,21.60
2022-08-21T01:16:33.859Z,21.50
2022-08-21T01:19:00.597Z,21.50
2022-08-21T01:21:28.983Z,21.40
2022-08-21T01:23:58.080Z,21.40
2022-08-21T01:26:33.651Z,21.30
2022-08-21T01:29:35.149Z,21.20
2022-08-21T01:32:11.149Z,21.20
2022-08-21T01:34:41.164Z,21.10
2022-08-21T01:37:08.027Z,21.00
2022-08-21T01:39:36.025Z,21.00
2022-08-21T01:42:03.118Z,21.00
2022-08-21T01:44:30.309Z,20.90
2022-08-21T01:47:00.163Z,20.90
2022-08-21T01:49:27.030Z,20.80
2022-08-21T01:51:53.838Z,20.80
2022-08-21T01:54:20.597Z,20.80
2022-08-21T01:56:50.963Z,20.90
2022-08-21T01:59:17.656Z,20.90
2022-08-21T02:01:44.337Z,20.90
2022-08-21T02:04:12.274Z,20.80
2022-08-21T02:06:39.293Z,20.80
2022-08-21T02:09:08.588Z,20.70
2022-08-21T02:11:36.892Z,20.60
2022-08-21T02:14:03.721Z,20.60
2022-08-21T02:16:30.519Z,20.60
2022-08-21T02:18:57.329Z,20.60
2022-08-21T02:21:24.039Z,20.60
2022-08-21T02:23:50.817Z,20.50
2022-08-21T02:26:17.723Z,20.50
2022-08-21T02:28:44.534Z,20.50
2022-08-21T02:31:11.671Z,20.50
2022-08-21T02:33:38.640Z,20.40
2022-08-21T02:36:05.688Z,20.40
2022-08-21T02:38:35.572Z,20.30
2022-08-21T02:41:02.497Z,20.30
2022-08-21T02:43:29.653Z,20.30
2022-08-21T02:45:58.697Z,20.20
2022-08-21T02:48:28.791Z,20.10
2022-08-21T02:50:58.865Z,20.00
2022-08-21T02:53:26.439Z,20.00
2022-08-21T02:55:54.442Z,19.90
2022-08-21T02:58:28.932Z,19.90
2022-08-21T03:00:56.090Z,19.80
2022-08-21T03:03:23.272Z,19.70
2022-08-21T03:05:50.262Z,19.70
2022-08-21T03:08:17.806Z,19.60
2022-08-21T03:10:47.279Z,19.60
2022-08-21T03:13:14.865Z,19.60
2022-08-21T03:15:42.634Z,19.50
2022-08-21T03:18:10.703Z,19.50
2022-08-21T03:20:39.776Z,19.40
2022-08-21T03:23:12.687Z,19.40
2022-08-21T03:25:42.090Z,19.30
2022-08-21T03:28:13.228Z,19.30
2022-08-21T03:30:45.792Z,19.30
2022-08-21T03:33:15.448Z,19.20
2022-08-21T03:35:48.007Z,19.20
2022-08-21T03:38:14.825Z,19.20
2022-08-21T03:40:43.683Z,19.20
2022-08-21T03:43:10.826Z,19.20
2022-08-21T03:45:38.625Z,19.20
2022-08-21T03:48:06.553Z,19.10
2022-08-21T03:50:41.232Z,19.10
2022-08-21T03:53:17.127Z,19.10
2022-08-21T03:55:48.692Z,19.10
2022-08-21T03:58:20.218Z,19.10
2022-08-21T04:00:50.208Z,19.10
2022-08-21T04:03:18.002Z,19.10
2022-08-21T04:05:46.523Z,19.10
2022-08-21T04:08:14.833Z,19.00
2022-08-21T04:10:47.213Z,19.00
2022-08-21T04:13:15.517Z,19.00
2022-08-21T04:15:42.347Z,19.00
2022-08-21T04:18:09.411Z,18.90
2022-08-21T04:20:36.231Z,18.90
2022-08-21T04:23:04.230Z,18.90
2022-08-21T04:25:31.880Z,18.90
2022-08-21T04:27:59.349Z,18.90
2022-08-21T04:30:28.006Z,18.90
2022-08-21T04:32:57.818Z,18.90
2022-08-21T04:35:27.671Z,18.90
2022-08-21T04:37:54.641Z,18.90
2022-08-21T04:40:23.294Z,18.90
2022-08-21T04:42:55.756Z,18.90
2022-08-21T04:45:24.317Z,18.90
2022-08-21T04:47:53.525Z,18.90
2022-08-21T04:50:23.401Z,18.90
2022-08-21T04:52:50.130Z,18.80
2022-08-21T04:55:19.277Z,18.80
2022-08-21T04:57:48.635Z,18.70
2022-08-21T05:00:19.799Z,18.70
2022-08-21T05:02:53.252Z,18.60
2022-08-21T05:05:20.018Z,18.50
2022-08-21T05:07:47.357Z,18.50
2022-08-21T05:10:15.433Z,18.50
2022-08-21T05:12:43.722Z,18.70
2022-08-21T05:15:13.457Z,18.50
2022-08-21T05:17:41.274Z,18.50
2022-08-21T05:20:09.397Z,18.50
2022-08-21T05:22:36.121Z,18.50
2022-08-21T05:25:02.951Z,18.60
2022-08-21T05:27:36.879Z,18.60
2022-08-21T05:30:08.512Z,18.60
2022-08-21T05:32:35.857Z,18.70
2022-08-21T05:35:03.612Z,18.70
2022-08-21T05:37:30.413Z,18.80
2022-08-21T05:40:20.738Z,18.90
2022-08-21T05:42:43.770Z,19.00
2022-08-21T05:45:10.758Z,19.10
2022-08-21T05:47:37.543Z,19.20
2022-08-21T05:50:05.633Z,19.30
2022-08-21T05:52:32.525Z,19.50
2022-08-21T05:54:59.320Z,19.60
2022-08-21T05:57:26.417Z,19.70
2022-08-21T05:59:53.163Z,19.80
2022-08-21T06:02:21.184Z,19.90
2022-08-21T06:04:48.444Z,20.00
2022-08-21T06:07:15.769Z,20.10
2022-08-21T06:09:42.623Z,20.20
2022-08-21T06:12:12.222Z,20.30
2022-08-21T06:14:40.997Z,20.30
2022-08-21T06:17:12.003Z,20.40
2022-08-21T06:19:39.357Z,20.40
2022-08-21T06:22:06.547Z,20.50
2022-08-21T06:24:33.496Z,20.60
2022-08-21T06:27:08.473Z,20.70
2022-08-21T06:29:44.471Z,20.80
2022-08-21T06:32:13.606Z,20.90
2022-08-21T06:34:43.092Z,21.00
2022-08-21T06:37:09.810Z,21.10
2022-08-21T06:39:36.689Z,21.30
2022-08-21T06:42:04.359Z,21.40
2022-08-21T06:44:36.837Z,21.50
2022-08-21T06:47:03.594Z,21.70
2022-08-21T06:49:30.300Z,21.90
2022-08-21T06:51:57.004Z,22.00
2022-08-21T06:54:23.847Z,22.20
2022-08-21T06:56:50.652Z,22.30
2022-08-21T06:59:17.353Z,22.50
2022-08-21T07:01:44.229Z,22.60
2022-08-21T07:04:11.740Z,22.80
2022-08-21T07:06:38.494Z,23.00
2022-08-21T07:09:05.319Z,23.30
2022-08-21T07:11:32.676Z,23.40
2022-08-21T07:14:09.120Z,23.60
2022-08-21T07:16:36.044Z,23.80
2022-08-21T07:19:03.058Z,23.90
2022-08-21T07:21:29.837Z,24.00
2022-08-21T07:23:56.571Z,24.10
2022-08-21T07:26:24.499Z,24.20
2022-08-21T07:28:52.104Z,24.30
2022-08-21T07:31:22.265Z,24.50
2022-08-21T07:33:49.504Z,24.60
2022-08-21T07:36:16.373Z,24.60
2022-08-21T07:38:43.126Z,24.70
2022-08-21T07:41:26.504Z,24.80
2022-08-21T07:43:53.319Z,25.00
2022-08-21T07:46:20.691Z,25.20
2022-08-21T07:48:47.529Z,25.30
2022-08-21T07:51:17.504Z,25.40
2022-08-21T07:53:52.946Z,25.50
2022-08-21T07:56:20.563Z,25.70
2022-08-21T07:58:48.012Z,25.90
2022-08-21T08:01:15.256Z,25.90
2022-08-21T08:03:42.126Z,26.10
2022-08-21T08:06:13.091Z,26.20
2022-08-21T08:08:41.844Z,26.20
2022-08-21T08:11:13.052Z,26.10
2022-08-21T08:13:45.724Z,26.20
2022-08-21T08:16:12.591Z,26.20
2022-08-21T08:18:39.486Z,26.40
2022-08-21T08:21:06.449Z,26.50
2022-08-21T08:23:33.766Z,26.50
2022-08-21T08:26:00.502Z,26.50
2022-08-21T08:28:28.203Z,26.50
2022-08-21T08:30:54.998Z,26.40
2022-08-21T08:33:22.058Z,26.50
2022-08-21T08:35:51.342Z,26.50
2022-08-21T08:38:24.505Z,26.50
2022-08-21T08:41:01.109Z,26.50
2022-08-21T08:43:33.528Z,26.50
2022-08-21T08:46:05.128Z,26.60
2022-08-21T08:49:04.052Z,26.60
2022-08-21T08:51:33.974Z,26.80
2022-08-21T08:54:04.734Z,26.80
2022-08-21T08:56:34.596Z,26.60
2022-08-21T08:59:14.662Z,26.70
2022-08-21T09:01:43.158Z,26.70
2022-08-21T09:04:13.126Z,26.60
2022-08-21T09:07:26.333Z,26.60
2022-08-21T09:10:13.522Z,26.90
2022-08-21T09:12:46.902Z,27.30
2022-08-21T09:15:23.432Z,27.30
2022-08-21T09:18:14.875Z,27.60
2022-08-21T09:20:46.489Z,27.70
2022-08-21T09:23:28.725Z,28.00
2022-08-21T09:26:34.285Z,28.30
2022-08-21T09:29:01.722Z,28.50
2022-08-21T09:31:39.787Z,28.40
2022-08-21T09:34:15.684Z,28.30
2022-08-21T09:36:45.763Z,28.30
2022-08-21T09:39:14.712Z,28.40
2022-08-21T09:41:41.662Z,28.40
2022-08-21T09:44:09.638Z,28.60
2022-08-21T09:46:37.245Z,28.80
2022-08-21T09:49:06.727Z,29.10
2022-08-21T09:51:36.598Z,29.10
2022-08-21T09:54:06.270Z,29.10
2022-08-21T09:56:57.537Z,29.10
2022-08-21T09:59:36.450Z,29.00
2022-08-21T10:02:30.417Z,28.80
2022-08-21T10:05:20.640Z,28.70
2022-08-21T10:07:47.360Z,28.60
2022-08-21T10:10:16.877Z,28.70
2022-08-21T10:12:57.663Z,28.70
2022-08-21T10:15:46.395Z,28.70
2022-08-21T10:18:22.737Z,28.70
2022-08-21T10:20:57.000Z,28.70
2022-08-21T10:23:35.848Z,28.60
2022-08-21T10:26:46.342Z,28.70
2022-08-21T10:29:16.384Z,28.70
2022-08-21T10:32:04.759Z,28.90
2022-08-21T10:35:08.913Z,29.10
2022-08-21T10:37:41.454Z,29.30
2022-08-21T10:40:24.714Z,29.60
2022-08-21T10:43:22.524Z,29.60
2022-08-21T10:46:00.292Z,29.80
2022-08-21T10:48:44.487Z,29.90
2022-08-21T10:51:15.364Z,30.00
2022-08-21T10:54:05.467Z,30.20
2022-08-21T10:56:37.142Z,30.50
2022-08-21T10:59:42.639Z,30.70
2022-08-21T11:02:09.276Z,30.90
2022-08-21T11:04:57.908Z,31.00
2022-08-21T11:07:34.316Z,31.10
2022-08-21T11:10:11.369Z,31.10
2022-08-21T11:12:55.439Z,31.10
2022-08-21T11:15:44.493Z,31.00
2022-08-21T11:18:21.937Z,31.00
2022-08-21T11:20:53.618Z,30.90
2022-08-21T11:23:32.293Z,30.80
2022-08-21T11:26:18.757Z,30.80
2022-08-21T11:29:09.478Z,30.90
2022-08-21T11:31:42.219Z,31.10
2022-08-21T11:34:41.239Z,31.40
2022-08-21T11:37:13.889Z,31.60
2022-08-21T11:40:17.981Z,31.80
2022-08-21T11:42:51.393Z,32.30
2022-08-21T11:45:28.347Z,32.70
2022-08-21T11:48:18.683Z,32.80
2022-08-21T11:50:48.313Z,32.70
2022-08-21T11:53:36.052Z,32.50
2022-08-21T11:56:14.927Z,32.30
2022-08-21T11:58:57.814Z,32.50
2022-08-21T12:01:43.200Z,32.50
2022-08-21T12:04:26.498Z,32.50
2022-08-21T12:06:53.594Z,32.70
2022-08-21T12:09:26.023Z,32.80
2022-08-21T12:12:24.166Z,33.20
2022-08-21T12:15:04.328Z,33.40
2022-08-21T12:17:39.113Z,33.70
2022-08-21T12:20:24.532Z,33.70
2022-08-21T12:23:06.187Z,33.90
2022-08-21T12:26:00.937Z,33.80
2022-08-21T12:28:29.462Z,33.60
2022-08-21T12:30:58.213Z,33.10
2022-08-21T12:33:25.029Z,32.70
2022-08-21T12:35:54.922Z,32.50
2022-08-21T12:38:23.843Z,32.10
2022-08-21T12:40:56.750Z,32.00
2022-08-21T12:43:35.963Z,31.90
2022-08-21T12:46:05.393Z,31.80
2022-08-21T12:48:50.706Z,31.70
2022-08-21T12:51:23.615Z,31.80
2022-08-21T12:53:59.594Z,31.80
2022-08-21T12:56:29.533Z,31.60
2022-08-21T12:59:08.862Z,31.30
2022-08-21T13:01:41.472Z,31.20
2022-08-21T13:04:13.876Z,31.20
2022-08-21T13:06:46.663Z,31.30
2022-08-21T13:09:17.769Z,31.30
2022-08-21T13:11:47.743Z,31.30
2022-08-21T13:14:45.051Z,31.40
2022-08-21T13:17:13.779Z,31.40
2022-08-21T13:19:59.473Z,31.30
2022-08-21T13:22:30.653Z,31.20
2022-08-21T13:25:02.378Z,30.90
2022-08-21T13:27:35.147Z,30.60
2022-08-21T13:30:28.115Z,30.40
2022-08-21T13:33:01.611Z,30.10
2022-08-21T13:35:35.819Z,29.90
2022-08-21T13:38:05.044Z,29.70
2022-08-21T13:40:53.065Z,29.60
2022-08-21T13:43:23.302Z,29.50
2022-08-21T13:45:53.935Z,29.60
2022-08-21T13:48:22.813Z,29.70
2022-08-21T13:50:50.218Z,29.90
2022-08-21T13:53:36.569Z,29.90
2022-08-21T13:56:05.425Z,30.00
2022-08-21T13:58:45.697Z,30.00
2022-08-21T14:01:40.939Z,30.20
2022-08-21T14:04:23.029Z,30.40
2022-08-21T14:06:49.995Z,30.70
2022-08-21T14:09:25.839Z,31.00
2022-08-21T14:11:54.651Z,31.20
2022-08-21T14:14:25.739Z,31.50
2022-08-21T14:17:24.245Z,31.60
2022-08-21T14:19:51.928Z,31.80
2022-08-21T14:22:24.919Z,31.80
2022-08-21T14:25:07.504Z,31.70
2022-08-21T14:27:37.229Z,31.60
2022-08-21T14:30:20.679Z,31.30
2022-08-21T14:32:47.860Z,30.90
2022-08-21T14:35:18.330Z,30.90
2022-08-21T14:37:53.890Z,30.80
2022-08-21T14:40:23.018Z,30.80
2022-08-21T14:42:50.547Z,30.80
2022-08-21T14:45:28.142Z,30.80
2022-08-21T14:47:56.737Z,30.90
2022-08-21T14:50:23.640Z,31.10
2022-08-21T14:52:55.098Z,31.10
2022-08-21T14:55:21.935Z,31.20
2022-08-21T14:57:51.095Z,31.30
2022-08-21T15:00:23.849Z,31.20
2022-08-21T15:02:54.005Z,31.10
2022-08-21T15:05:31.572Z,31.10
2022-08-21T15:08:00.438Z,31.00
2022-08-21T15:10:27.391Z,30.90
2022-08-21T15:12:54.279Z,30.70
2022-08-21T15:15:21.087Z,30.60
2022-08-21T15:17:48.710Z,30.50
2022-08-21T15:20:15.922Z,30.40
2022-08-21T15:22:47.472Z,30.40
2022-08-21T15:25:15.014Z,30.40
2022-08-21T15:27:42.021Z,30.40
2022-08-21T15:30:09.363Z,30.40
2022-08-21T15:32:36.034Z,30.40
2022-08-21T15:35:03.518Z,30.40
2022-08-21T15:37:30.376Z,30.50
2022-08-21T15:39:57.378Z,30.60
2022-08-21T15:42:27.584Z,30.70
2022-08-21T15:44:56.554Z,30.80
2022-08-21T15:47:28.426Z,30.70
2022-08-21T15:49:55.126Z,30.60
2022-08-21T15:52:22.673Z,30.70
2022-08-21T15:54:49.744Z,30.80
2022-08-21T15:57:21.337Z,30.80
2022-08-21T16:00:14.289Z,30.80
2022-08-21T16:02:44.759Z,30.80
2022-08-21T16:05:13.052Z,30.90
2022-08-21T16:07:40.673Z,31.00
2022-08-21T16:10:08.809Z,31.00
2022-08-21T16:12:42.977Z,31.10
2022-08-21T16:15:12.092Z,31.20
2022-08-21T16:17:49.687Z,31.30
2022-08-21T16:20:25.731Z,31.30
2022-08-21T16:22:53.837Z,31.20
2022-08-21T16:25:21.358Z,31.10
2022-08-21T16:27:57.305Z,31.00
2022-08-21T16:30:26.832Z,30.80
2022-08-21T16:32:54.007Z,30.60
2022-08-21T16:35:21.918Z,30.50
2022-08-21T16:37:52.910Z,30.50
2022-08-21T16:40:23.029Z,30.40
2022-08-21T16:42:50.453Z,30.40
2022-08-21T16:45:21.114Z,30.40
2022-08-21T16:47:48.266Z,30.40
2022-08-21T16:50:19.424Z,30.40
2022-08-21T16:52:46.261Z,30.40
2022-08-21T16:55:12.979Z,30.40
2022-08-21T16:57:39.757Z,30.40
2022-08-21T17:00:12.939Z,30.40
2022-08-21T17:02:46.602Z,30.30
2022-08-21T17:05:14.400Z,30.30
2022-08-21T17:07:42.539Z,30.20
2022-08-21T17:10:12.129Z,30.10
2022-08-21T17:12:40.151Z,30.10
2022-08-21T17:15:30.120Z,30.00
2022-08-21T17:17:57.211Z,30.00
2022-08-21T17:20:26.098Z,29.90
2022-08-21T17:22:53.262Z,29.80
2022-08-21T17:25:20.229Z,29.80
2022-08-21T17:27:49.339Z,29.70
2022-08-21T17:30:17.343Z,29.60
2022-08-21T17:32:46.028Z,29.50
2022-08-21T17:35:13.897Z,29.40
2022-08-21T17:37:41.228Z,29.40
2022-08-21T17:40:12.277Z,29.30
2022-08-21T17:42:41.593Z,29.20
2022-08-21T17:45:11.289Z,29.20
2022-08-21T17:47:39.006Z,29.10
2022-08-21T17:50:07.256Z,29.00
2022-08-21T17:52:34.158Z,28.90
2022-08-21T17:55:01.151Z,28.90
2022-08-21T17:57:31.953Z,28.80
2022-08-21T17:59:59.054Z,28.70
2022-08-21T18:02:26.714Z,28.60
2022-08-21T18:04:55.404Z,28.50
2022-08-21T18:07:31.848Z,28.40
2022-08-21T18:10:01.033Z,28.40
2022-08-21T18:12:28.659Z,28.20
2022-08-21T18:14:55.452Z,28.10
2022-08-21T18:17:23.823Z,27.90
2022-08-21T18:19:50.729Z,27.80
2022-08-21T18:22:17.554Z,27.70
2022-08-21T18:24:44.359Z,27.70
2022-08-21T18:27:13.089Z,27.50
2022-08-21T18:29:46.612Z,27.50
2022-08-21T18:32:31.266Z,27.40
2022-08-21T18:35:04.947Z,27.30
2022-08-21T18:37:32.039Z,27.20
2022-08-21T18:39:59.207Z,27.10
2022-08-21T18:42:28.538Z,27.10
2022-08-21T18:45:00.842Z,27.00
2022-08-21T18:47:33.742Z,27.00
2022-08-21T18:50:00.998Z,26.90
2022-08-21T18:52:28.564Z,26.90
2022-08-21T18:54:55.748Z,26.90
2022-08-21T18:57:25.539Z,26.90
2022-08-21T18:59:52.188Z,26.80
2022-08-21T19:02:19.226Z,26.80
2022-08-21T19:04:47.043Z,26.80
2022-08-21T19:07:15.118Z,26.70
2022-08-21T19:09:52.720Z,26.70
2022-08-21T19:12:29.528Z,26.60
2022-08-21T19:14:56.506Z,26.60
2022-08-21T19:17:24.908Z,26.60
2022-08-21T19:19:52.290Z,26.50
2022-08-21T19:22:19.669Z,26.50
2022-08-21T19:27:34.214Z,26.40
2022-08-21T19:30:01.568Z,26.30
2022-08-21T19:32:28.497Z,26.30
2022-08-21T19:34:55.325Z,26.20
2022-08-21T19:37:24.748Z,26.10
2022-08-21T19:39:51.816Z,26.10
2022-08-21T19:42:21.623Z,26.00
2022-08-21T19:44:50.924Z,26.00
2022-08-21T19:47:21.179Z,25.90
2022-08-21T19:49:56.433Z,25.90
2022-08-21T19:52:23.215Z,25.80
2022-08-21T19:54:51.379Z,25.80
2022-08-21T19:57:18.581Z,25.80
2022-08-21T19:59:45.865Z,25.80
2022-08-21T20:02:14.941Z,25.70
2022-08-21T20:04:53.544Z,25.70
2022-08-21T20:07:26.298Z,25.70
2022-08-21T20:09:54.389Z,25.70
2022-08-21T20:12:22.850Z,25.70
2022-08-21T20:14:50.748Z,25.70
2022-08-21T20:17:18.800Z,25.70
2022-08-21T20:19:51.236Z,25.70
2022-08-21T20:22:21.005Z,25.60
2022-08-21T20:24:48.090Z,25.60
2022-08-21T20:27:21.640Z,25.60
2022-08-21T20:29:48.657Z,25.60
2022-08-21T20:32:17.253Z,25.60
2022-08-21T20:34:45.246Z,25.60
2022-08-21T20:37:12.619Z,25.50
2022-08-21T20:39:39.673Z,25.50
2022-08-21T20:42:09.924Z,25.50
2022-08-21T20:44:37.408Z,25.40
2022-08-21T20:47:13.613Z,25.40
2022-08-21T20:49:46.531Z,25.30
2022-08-21T20:52:15.848Z,25.30
2022-08-21T20:54:52.445Z,25.30
2022-08-21T20:57:29.510Z,25.30
2022-08-21T21:00:14.461Z,25.20
2022-08-21T21:03:33.973Z,25.20
2022-08-21T21:06:25.984Z,25.30
2022-08-21T21:09:04.301Z,25.30
2022-08-21T21:11:39.815Z,25.20
2022-08-21T21:14:38.166Z,25.10
2022-08-21T21:17:13.381Z,25.10
2022-08-21T21:19:58.908Z,25.00
2022-08-21T21:22:30.754Z,25.00
2022-08-21T21:25:08.090Z,24.90
2022-08-21T21:27:57.284Z,24.80
2022-08-21T21:30:46.387Z,24.80
2022-08-21T21:33:16.376Z,24.70
2022-08-21T21:35:48.990Z,24.70
2022-08-21T21:38:35.406Z,24.70
2022-08-21T21:41:42.932Z,24.70
2022-08-21T21:44:25.249Z,24.60
2022-08-21T21:47:27.502Z,24.60
2022-08-21T21:50:24.679Z,24.50
2022-08-21T21:53:26.070Z,24.40
2022-08-21T21:56:29.107Z,24.40
2022-08-21T21:59:14.424Z,24.30
2022-08-21T22:01:51.332Z,24.30
2022-08-21T22:04:52.199Z,24.20
2022-08-21T22:07:43.648Z,24.20
2022-08-21T22:10:32.409Z,24.10
2022-08-21T22:13:25.295Z,24.10
2022-08-21T22:15:54.743Z,24.00
2022-08-21T22:18:29.492Z,24.00
2022-08-21T22:21:00.178Z,24.00
2022-08-21T22:23:31.770Z,23.90
2022-08-21T22:26:09.119Z,23.90
2022-08-21T22:28:41.803Z,23.90
2022-08-21T22:34:06.983Z,23.80
2022-08-21T22:37:02.773Z,23.80
2022-08-21T22:39:38.847Z,23.70
2022-08-21T22:42:08.242Z,23.70
2022-08-21T22:44:51.030Z,23.70
2022-08-21T22:47:34.089Z,23.70
2022-08-21T22:50:16.705Z,23.60
2022-08-21T22:52:57.131Z,23.60
2022-08-21T22:55:32.951Z,23.60
2022-08-21T22:58:05.966Z,23.60
2022-08-21T23:00:56.668Z,23.60
2022-08-21T23:03:26.196Z,23.60
2022-08-21T23:06:02.151Z,23.50
2022-08-21T23:08:35.887Z,23.50
2022-08-21T23:11:14.635Z,23.50
2022-08-21T23:13:44.639Z,23.50
2022-08-21T23:16:11.270Z,23.50
2022-08-21T23:19:19.820Z,23.50
2022-08-21T23:21:59.819Z,23.50
2022-08-21T23:24:33.121Z,23.50
2022-08-21T23:27:12.388Z,23.50
2022-08-21T23:29:54.709Z,23.50
2022-08-21T23:33:00.379Z,23.50
2022-08-21T23:36:30.269Z,23.50
2022-08-21T23:39:27.769Z,23.40
2022-08-21T23:42:14.357Z,23.40
2022-08-21T23:44:53.054Z,23.40
2022-08-21T23:47:22.873Z,23.30
2022-08-21T23:49:58.390Z,23.30
2022-08-21T23:52:44.374Z,23.30
2022-08-21T23:55:30.754Z,23.20
2022-08-21T23:58:31.949Z,23.10
